CSZ648 LOWI-ZSOF
Flight info
| Callsign | CSZ648 |
|---|---|
| Flight time | N/A |
| Altitude | 34000 |
| Route | UNKEN DCT LANUX DCT LABUK DCT TUSIN M984 KOTEK M866 ETUBO M863 RUDKA T174 OSMUS N869 SONAT P865 RUPES R104 ABK A308 TR P982 DARNO Y746 NIXAL B208 BIPIM |
| Aircraft | A21N/M-SDE2E3FGHILRWXY/LB2 |
Departure
| Time | 2026-05-07 17:14 |
|---|---|
| Airport | Innsbruck Airport (LOWI) |
Arrival
| Time | N/A |
|---|---|
| Airport | Hefei Xinqiao International Airport (ZSOF) |
| Time | Latitude | Longitude | Altitude | Speed | Heading |
|---|---|---|---|---|---|
| 2026-05-07 16:07 | 47.25820 | 11.34995 | 1914 ft | 0 kts | 171° |
| 2026-05-07 16:31 | 47.25831 | 11.34993 | 1913 ft | 2 kts | 171° |
| 2026-05-07 16:32 | 47.25846 | 11.34990 | 1913 ft | 2 kts | 171° |
| 2026-05-07 16:32 | 47.25861 | 11.34990 | 1913 ft | 2 kts | 208° |
| 2026-05-07 16:32 | 47.25872 | 11.35006 | 1913 ft | 2 kts | 248° |
| 2026-05-07 16:32 | 47.25874 | 11.35017 | 1913 ft | 1 kts | 265° |
| 2026-05-07 16:33 | 47.25874 | 11.35022 | 1913 ft | 0 kts | 261° |
| 2026-05-07 16:34 | 47.25874 | 11.35021 | 1913 ft | 0 kts | 261° |
| 2026-05-07 16:34 | 47.25868 | 11.34967 | 1913 ft | 10 kts | 261° |
| 2026-05-07 16:35 | 47.25852 | 11.34824 | 1913 ft | 18 kts | 261° |
| 2026-05-07 16:35 | 47.25830 | 11.34620 | 1913 ft | 21 kts | 260° |
| 2026-05-07 16:35 | 47.25806 | 11.34408 | 1913 ft | 20 kts | 260° |
| 2026-05-07 16:35 | 47.25785 | 11.34203 | 1913 ft | 20 kts | 261° |
| 2026-05-07 16:36 | 47.25773 | 11.34003 | 1913 ft | 19 kts | 277° |
| 2026-05-07 16:36 | 47.25832 | 11.33829 | 1913 ft | 19 kts | 306° |
| 2026-05-07 16:36 | 47.25914 | 11.33662 | 1913 ft | 21 kts | 302° |
| 2026-05-07 16:36 | 47.25914 | 11.33428 | 1913 ft | 23 kts | 260° |
| 2026-05-07 16:37 | 47.25887 | 11.33231 | 1913 ft | 13 kts | 239° |
| 2026-05-07 16:37 | 47.25842 | 11.33145 | 1913 ft | 5 kts | 261° |
| 2026-05-07 16:37 | 47.25854 | 11.33112 | 1913 ft | 4 kts | 333° |
| 2026-05-07 16:37 | 47.25872 | 11.33106 | 1913 ft | 0 kts | 5° |
| 2026-05-07 16:38 | 47.25877 | 11.33115 | 1913 ft | 1 kts | 57° |
| 2026-05-07 16:38 | 47.25883 | 11.33135 | 1913 ft | 2 kts | 74° |
| 2026-05-07 16:38 | 47.25884 | 11.33140 | 1913 ft | 0 kts | 80° |
| 2026-05-07 16:38 | 47.25902 | 11.33310 | 1913 ft | 50 kts | 81° |
| 2026-05-07 16:39 | 47.25993 | 11.34146 | 1914 ft | 114 kts | 80° |
| 2026-05-07 16:39 | 47.26125 | 11.35360 | 1913 ft | 68 kts | 81° |
| 2026-05-07 16:39 | 47.26141 | 11.35538 | 1913 ft | 7 kts | 85° |
| 2026-05-07 16:39 | 47.26130 | 11.35612 | 1913 ft | 7 kts | 123° |
| 2026-05-07 16:40 | 47.26149 | 11.35664 | 1913 ft | 8 kts | 341° |
| 2026-05-07 16:40 | 47.26147 | 11.35584 | 1913 ft | 9 kts | 256° |
| 2026-05-07 16:40 | 47.26134 | 11.35474 | 1913 ft | 12 kts | 262° |
| 2026-05-07 16:40 | 47.26122 | 11.35348 | 1913 ft | 12 kts | 260° |
| 2026-05-07 16:41 | 47.26076 | 11.35258 | 1913 ft | 10 kts | 179° |
| 2026-05-07 16:41 | 47.26004 | 11.35271 | 1913 ft | 10 kts | 170° |
| 2026-05-07 16:41 | 47.25937 | 11.35287 | 1913 ft | 8 kts | 171° |
| 2026-05-07 16:41 | 47.25900 | 11.35256 | 1913 ft | 1 kts | 253° |
| 2026-05-07 16:45 | 47.25898 | 11.35247 | 1913 ft | 2 kts | 256° |
| 2026-05-07 16:46 | 47.25893 | 11.35205 | 1913 ft | 5 kts | 259° |
| 2026-05-07 16:46 | 47.25886 | 11.35136 | 1913 ft | 7 kts | 261° |
| 2026-05-07 16:46 | 47.25877 | 11.35068 | 1913 ft | 6 kts | 244° |
| 2026-05-07 16:46 | 47.25835 | 11.35054 | 1913 ft | 6 kts | 172° |
| 2026-05-07 16:47 | 47.25822 | 11.35057 | 1913 ft | 0 kts | 171° |
| 2026-05-07 17:06 | 47.25831 | 11.35055 | 1913 ft | 2 kts | 171° |
| 2026-05-07 17:06 | 47.25845 | 11.35052 | 1913 ft | 2 kts | 171° |
| 2026-05-07 17:06 | 47.25860 | 11.35048 | 1913 ft | 2 kts | 180° |
| 2026-05-07 17:07 | 47.25874 | 11.35057 | 1913 ft | 2 kts | 227° |
| 2026-05-07 17:07 | 47.25880 | 11.35071 | 1913 ft | 0 kts | 258° |
| 2026-05-07 17:07 | 47.25880 | 11.35082 | 1913 ft | 1 kts | 262° |
| 2026-05-07 17:09 | 47.25880 | 11.35080 | 1913 ft | 0 kts | 261° |
| 2026-05-07 17:09 | 47.25877 | 11.35049 | 1913 ft | 7 kts | 261° |
| 2026-05-07 17:10 | 47.25864 | 11.34928 | 1913 ft | 16 kts | 261° |
| 2026-05-07 17:10 | 47.25841 | 11.34720 | 1913 ft | 24 kts | 260° |
| 2026-05-07 17:10 | 47.25813 | 11.34452 | 1913 ft | 27 kts | 261° |
| 2026-05-07 17:10 | 47.25783 | 11.34181 | 1913 ft | 26 kts | 261° |
| 2026-05-07 17:11 | 47.25789 | 11.33927 | 1913 ft | 24 kts | 297° |
| 2026-05-07 17:11 | 47.25883 | 11.33727 | 1913 ft | 23 kts | 306° |
| 2026-05-07 17:11 | 47.25919 | 11.33515 | 1913 ft | 22 kts | 259° |
| 2026-05-07 17:11 | 47.25900 | 11.33291 | 1913 ft | 21 kts | 263° |
| 2026-05-07 17:12 | 47.25856 | 11.33182 | 1913 ft | 10 kts | 231° |
| 2026-05-07 17:12 | 47.25859 | 11.33116 | 1913 ft | 5 kts | 341° |
| 2026-05-07 17:12 | 47.25885 | 11.33151 | 1913 ft | 4 kts | 79° |
| 2026-05-07 17:12 | 47.25885 | 11.33158 | 1913 ft | 0 kts | 80° |
| 2026-05-07 17:13 | 47.25894 | 11.33244 | 1913 ft | 34 kts | 81° |
| 2026-05-07 17:13 | 47.25971 | 11.33941 | 1914 ft | 99 kts | 80° |
| 2026-05-07 17:13 | 47.26105 | 11.35206 | 1914 ft | 151 kts | 82° |
| 2026-05-07 17:13 | 47.26284 | 11.36846 | 2311 ft | 165 kts | 82° |
| 2026-05-07 17:14 | 47.26483 | 11.38484 | 2959 ft | 165 kts | 82° |
| 2026-05-07 17:14 | 47.26685 | 11.40093 | 3678 ft | 160 kts | 85° |
| 2026-05-07 17:14 | 47.26878 | 11.41760 | 4074 ft | 173 kts | 86° |
| 2026-05-07 17:14 | 47.27081 | 11.43563 | 4300 ft | 182 kts | 86° |
| 2026-05-07 17:15 | 47.27290 | 11.45439 | 4499 ft | 192 kts | 83° |
| 2026-05-07 17:15 | 47.27728 | 11.47405 | 4703 ft | 208 kts | 74° |
| 2026-05-07 17:15 | 47.28326 | 11.49406 | 4907 ft | 225 kts | 72° |
| 2026-05-07 17:15 | 47.28778 | 11.50914 | 5083 ft | 235 kts | 72° |
| 2026-05-07 17:16 | 47.29446 | 11.53173 | 5349 ft | 249 kts | 72° |
| 2026-05-07 17:16 | 47.30152 | 11.55599 | 5622 ft | 263 kts | 72° |
| 2026-05-07 17:16 | 47.30875 | 11.58124 | 6042 ft | 271 kts | 73° |
| 2026-05-07 17:16 | 47.31611 | 11.60700 | 6586 ft | 274 kts | 72° |
| 2026-05-07 17:17 | 47.32348 | 11.63255 | 7096 ft | 277 kts | 72° |
| 2026-05-07 17:17 | 47.33109 | 11.65887 | 7577 ft | 282 kts | 73° |
| 2026-05-07 17:17 | 47.33888 | 11.68601 | 8033 ft | 288 kts | 72° |
| 2026-05-07 17:17 | 47.34666 | 11.71316 | 8440 ft | 294 kts | 72° |
| 2026-05-07 17:18 | 47.35472 | 11.74127 | 8915 ft | 298 kts | 72° |
| 2026-05-07 17:18 | 47.36283 | 11.76965 | 9350 ft | 303 kts | 71° |
| 2026-05-07 17:18 | 47.37101 | 11.79820 | 9773 ft | 308 kts | 71° |
| 2026-05-07 17:18 | 47.37940 | 11.82760 | 10241 ft | 311 kts | 70° |
| 2026-05-07 17:19 | 47.38801 | 11.85767 | 10493 ft | 322 kts | 70° |
| 2026-05-07 17:19 | 47.39685 | 11.88858 | 10709 ft | 334 kts | 69° |
| 2026-05-07 17:19 | 47.40598 | 11.92058 | 10919 ft | 346 kts | 69° |
| 2026-05-07 17:19 | 47.41542 | 11.95366 | 11126 ft | 357 kts | 69° |
| 2026-05-07 17:20 | 47.42498 | 11.98725 | 11323 ft | 368 kts | 69° |
| 2026-05-07 17:20 | 47.43756 | 12.02109 | 11487 ft | 381 kts | 51° |
| 2026-05-07 17:20 | 47.45778 | 12.04659 | 11665 ft | 390 kts | 27° |
| 2026-05-07 17:20 | 47.48304 | 12.06161 | 11978 ft | 395 kts | 18° |
| 2026-05-07 17:21 | 47.50797 | 12.07894 | 12386 ft | 400 kts | 33° |
| 2026-05-07 17:21 | 47.52883 | 12.10638 | 12819 ft | 403 kts | 45° |
| 2026-05-07 17:21 | 47.54823 | 12.13725 | 13235 ft | 406 kts | 47° |
| 2026-05-07 17:21 | 47.56696 | 12.16852 | 13608 ft | 410 kts | 48° |
| 2026-05-07 17:22 | 47.58567 | 12.20020 | 13993 ft | 413 kts | 48° |
| 2026-05-07 17:22 | 47.60459 | 12.23228 | 14378 ft | 415 kts | 48° |
| 2026-05-07 17:22 | 47.62369 | 12.26468 | 14756 ft | 418 kts | 47° |
| 2026-05-07 17:22 | 47.64266 | 12.29683 | 15122 ft | 421 kts | 47° |
| 2026-05-07 17:23 | 47.66220 | 12.32995 | 15490 ft | 423 kts | 47° |
| 2026-05-07 17:23 | 47.68144 | 12.36258 | 15843 ft | 426 kts | 47° |
| 2026-05-07 17:23 | 47.70106 | 12.39589 | 16190 ft | 428 kts | 47° |
| 2026-05-07 17:23 | 47.72069 | 12.42926 | 16529 ft | 431 kts | 47° |
| 2026-05-07 17:24 | 47.74055 | 12.46305 | 16865 ft | 434 kts | 46° |
| 2026-05-07 17:24 | 47.76042 | 12.49692 | 17194 ft | 436 kts | 46° |
| 2026-05-07 17:24 | 47.78025 | 12.53077 | 17515 ft | 438 kts | 46° |
| 2026-05-07 17:24 | 47.80024 | 12.56511 | 17830 ft | 441 kts | 47° |
| 2026-05-07 17:25 | 47.81919 | 12.60127 | 18141 ft | 445 kts | 52° |
| 2026-05-07 17:25 | 47.83628 | 12.63990 | 18446 ft | 448 kts | 57° |
| 2026-05-07 17:25 | 47.85173 | 12.68009 | 18738 ft | 451 kts | 59° |
| 2026-05-07 17:25 | 47.86678 | 12.72094 | 19014 ft | 453 kts | 60° |
| 2026-05-07 17:26 | 47.88186 | 12.76220 | 19287 ft | 455 kts | 59° |
| 2026-05-07 17:26 | 47.89712 | 12.80380 | 19558 ft | 457 kts | 59° |
| 2026-05-07 17:26 | 47.91240 | 12.84533 | 19824 ft | 459 kts | 59° |
| 2026-05-07 17:26 | 47.92784 | 12.88718 | 20088 ft | 461 kts | 59° |
| 2026-05-07 17:27 | 47.94338 | 12.92925 | 20347 ft | 463 kts | 59° |
| 2026-05-07 17:27 | 47.95894 | 12.97142 | 20602 ft | 465 kts | 58° |
| 2026-05-07 17:27 | 47.97443 | 13.01355 | 20878 ft | 466 kts | 58° |
| 2026-05-07 17:27 | 47.99015 | 13.05642 | 21205 ft | 466 kts | 57° |
| 2026-05-07 17:28 | 48.00569 | 13.09882 | 21549 ft | 465 kts | 56° |
| 2026-05-07 17:28 | 48.02135 | 13.14154 | 21909 ft | 463 kts | 55° |
| 2026-05-07 17:28 | 48.03657 | 13.18308 | 22274 ft | 460 kts | 55° |
| 2026-05-07 17:28 | 48.05201 | 13.22522 | 22643 ft | 458 kts | 54° |
| 2026-05-07 17:29 | 48.06729 | 13.26689 | 22922 ft | 457 kts | 54° |
| 2026-05-07 17:29 | 48.08266 | 13.30883 | 23130 ft | 459 kts | 54° |
| 2026-05-07 17:29 | 48.09792 | 13.35055 | 23328 ft | 460 kts | 54° |
| 2026-05-07 17:29 | 48.11342 | 13.39289 | 23540 ft | 461 kts | 54° |
| 2026-05-07 17:30 | 48.12895 | 13.43520 | 23755 ft | 462 kts | 54° |
| 2026-05-07 17:30 | 48.14427 | 13.47709 | 23968 ft | 464 kts | 54° |
| 2026-05-07 17:30 | 48.15972 | 13.51951 | 24169 ft | 465 kts | 54° |
| 2026-05-07 17:30 | 48.17530 | 13.56246 | 24371 ft | 466 kts | 54° |
| 2026-05-07 17:31 | 48.19067 | 13.60497 | 24562 ft | 467 kts | 54° |
| 2026-05-07 17:31 | 48.20623 | 13.64812 | 24758 ft | 468 kts | 53° |
| 2026-05-07 17:31 | 48.22177 | 13.69138 | 24922 ft | 470 kts | 54° |
| 2026-05-07 17:31 | 48.23721 | 13.73454 | 25077 ft | 472 kts | 54° |
| 2026-05-07 17:32 | 48.25282 | 13.77825 | 25244 ft | 473 kts | 54° |
| 2026-05-07 17:32 | 48.26822 | 13.82141 | 25413 ft | 474 kts | 54° |
| 2026-05-07 17:32 | 48.28387 | 13.86529 | 25587 ft | 474 kts | 54° |
| 2026-05-07 17:32 | 48.29416 | 13.89416 | 25703 ft | 475 kts | 54° |
| 2026-05-07 17:33 | 48.31497 | 13.95261 | 25923 ft | 476 kts | 54° |
| 2026-05-07 17:33 | 48.33051 | 13.99631 | 26085 ft | 476 kts | 54° |
| 2026-05-07 17:33 | 48.34613 | 14.04034 | 26289 ft | 476 kts | 54° |
| 2026-05-07 17:33 | 48.36160 | 14.08405 | 26523 ft | 475 kts | 54° |
| 2026-05-07 17:34 | 48.37705 | 14.12777 | 26750 ft | 474 kts | 53° |
| 2026-05-07 17:34 | 48.39249 | 14.17151 | 26962 ft | 473 kts | 53° |
| 2026-05-07 17:34 | 48.40796 | 14.21540 | 27177 ft | 472 kts | 53° |
| 2026-05-07 17:34 | 48.42330 | 14.25898 | 27383 ft | 471 kts | 53° |
| 2026-05-07 17:35 | 48.43855 | 14.30238 | 27583 ft | 471 kts | 53° |
| 2026-05-07 17:35 | 48.45381 | 14.34588 | 27797 ft | 470 kts | 53° |
| 2026-05-07 17:35 | 48.46893 | 14.38906 | 28022 ft | 469 kts | 53° |
| 2026-05-07 17:35 | 48.48418 | 14.43268 | 28241 ft | 468 kts | 53° |
| 2026-05-07 17:36 | 48.49941 | 14.47633 | 28454 ft | 467 kts | 53° |
| 2026-05-07 17:36 | 48.51448 | 14.51958 | 28663 ft | 466 kts | 53° |
| 2026-05-07 17:36 | 48.52940 | 14.56245 | 28867 ft | 465 kts | 52° |